Latest Weather Observations for Coldstream

IDV60901

Issued at 6:41 am EDT Sunday 22 January 2017 (issued every 10 minutes, with the page automatically refreshed every 10 minutes)

About weather observations | Map of Melbourne area stations | Latest observations for Melbourne area | Other Formats
Station Details ID: 086383 Name: COLDSTREAM Lat: -37.72 Lon: 145.41 Height: 83.0 m
Data from the previous 72 hours. | See also: Recent months at Coldstream
Date/Time
EDT
Temp
°C
App
Temp
°C
Dew
Point
°C
Rel
Hum
%
Delta-T
°C
Wind Press
QNH
hPa
Press
MSL
hPa
Rain since
9am
mm
Dir  Spd
km/h
Gust
km/h
Spd
kts
Gust
kts
22/06:30am 7.6 7.0 7.3 98 0.1 CALM 0 0 0 0 1016.6 1016.3 0.0
22/06:00am 7.1 6.3 6.7 97 0.2 CALM 0 7 0 4 1016.4 1016.1 0.0
22/05:30am 7.8 7.2 7.4 97 0.2 CALM 0 0 0 0 1016.0 1015.7 0.0
22/05:00am 8.0 7.4 7.4 96 0.3 CALM 0 0 0 0 1015.9 1015.6 0.0
22/04:30am 8.3 7.7 7.5 95 0.4 CALM 0 0 0 0 1015.7 1015.4 0.0
22/04:00am 8.7 7.8 7.8 94 0.4 SSW 2 6 1 3 1015.6 1015.3 0.0
22/03:30am 9.4 9.0 8.3 93 0.5 CALM 0 0 0 0 1015.6 1015.3 0.0
22/03:00am 10.1 9.5 8.9 92 0.6 SSW 2 7 1 4 1015.7 1015.4 0.0
22/02:30am 11.3 10.5 9.6 89 0.9 SE 4 11 2 6 1015.8 1015.5 0.0
22/02:00am 12.1 10.7 10.8 92 0.7 SSE 9 13 5 7 1015.8 1015.5 0.0
22/01:30am 12.0 12.1 10.1 88 1.0 CALM 0 0 0 0 1016.0 1015.7 0.0
22/01:00am 12.9 12.7 10.3 84 1.3 NE 2 7 1 4 1016.1 1015.8 0.0
22/12:30am 14.1 13.1 10.3 78 2.0 ESE 6 13 3 7 1016.2 1015.9 0.0
22/12:00am 15.0 12.7 10.4 74 2.4 SSE 13 22 7 12 1016.2 1015.9 0.0
 
Date/Time
EDT
Temp
°C
App
Temp
°C
Dew
Point
°C
Rel
Hum
%
Delta-T
°C
Wind Press
QNH
hPa
Press
MSL
hPa
Rain since
9am
mm
Dir  Spd
km/h
Gust
km/h
Spd
kts
Gust
kts
21/11:30pm 15.4 12.0 10.4 72 2.6 SSE 19 28 10 15 1016.1 1015.8 0.0
21/11:00pm 15.7 12.9 10.0 69 3.0 SSE 15 24 8 13 1016.3 1016.0 0.0
21/10:30pm 15.9 12.3 10.0 68 3.1 SE 19 26 10 14 1016.3 1016.0 0.0
21/10:00pm 16.2 12.7 10.9 71 2.8 SE 20 24 11 13 1016.3 1016.0 0.0
21/09:30pm 17.1 14.6 10.9 67 3.3 SSE 15 22 8 12 1016.3 1016.0 0.0
21/09:00pm 18.0 16.1 10.6 62 4.0 SSE 11 20 6 11 1016.1 1015.8 0.0
21/08:30pm 19.1 17.2 10.6 58 4.6 SSE 11 17 6 9 1015.7 1015.4 0.0
21/08:00pm 20.4 17.7 10.5 53 5.4 S 15 22 8 12 1015.4 1015.1 0.0
21/07:30pm 21.2 18.9 10.4 50 5.9 S 13 20 7 11 1015.2 1014.9 0.0
21/07:00pm 21.8 19.6 10.9 50 6.0 SSE 13 20 7 11 1014.9 1014.6 0.0
21/06:30pm 22.2 19.9 10.4 47 6.5 SSE 13 20 7 11 1014.8 1014.5 0.0
21/06:00pm 22.2 19.9 10.4 47 6.5 S 13 22 7 12 1014.6 1014.3 0.0
21/05:30pm 23.1 20.7 11.5 48 6.5 SW 15 28 8 15 1014.8 1014.5 0.0
21/05:00pm 22.6 20.3 11.7 50 6.1 SSW 15 26 8 14 1014.8 1014.5 0.0
21/04:30pm 21.7 19.6 11.1 51 5.9 SSW 13 24 7 13 1014.9 1014.6 0.0
21/04:00pm 22.3 20.0 11.7 51 6.0 SSE 15 28 8 15 1015.1 1014.8 0.0
21/03:30pm 21.1 18.5 10.6 51 5.8 S 15 30 8 16 1015.1 1014.8 0.0
21/03:00pm 21.3 18.9 10.2 49 6.0 SSE 13 22 7 12 1015.1 1014.8 0.0
21/02:30pm 21.3 18.6 10.2 49 6.0 S 15 26 8 14 1015.2 1014.9 0.0
21/02:00pm 20.8 18.5 10.3 51 5.7 SSE 13 32 7 17 1015.4 1015.1 0.0
21/01:30pm 21.0 18.3 10.2 50 5.9 SSE 15 24 8 13 1015.5 1015.2 0.0
21/01:00pm 21.5 19.3 10.9 51 5.8 SE 13 24 7 13 1015.5 1015.2 0.0
21/12:30pm 20.5 18.3 10.9 54 5.3 SSE 13 20 7 11 1015.6 1015.3 0.0
21/12:00pm 19.6 17.3 10.6 56 4.9 SSE 13 22 7 12 1015.7 1015.4 0.0
21/11:30am 19.8 17.1 10.5 55 5.0 ESE 15 24 8 13 1015.5 1015.2 0.0
21/11:00am 18.5 15.6 9.8 57 4.6 SE 15 24 8 13 1015.5 1015.2 0.0
21/10:30am 18.8 15.9 9.8 56 4.8 SE 15 22 8 12 1015.4 1015.1 0.0
21/10:00am 16.9 13.5 9.3 61 4.0 SSE 17 24 9 13 1015.2 1014.9 0.0
21/09:30am 16.0 13.6 10.1 68 3.1 SE 13 19 7 10 1015.1 1014.8 0.0
21/09:00am 15.5 13.2 10.3 71 2.7 ESE 13 15 7 8 1015.1 1014.8 1.2
21/08:30am 15.2 13.4 9.6 69 2.9 SE 9 13 5 7 1014.5 1014.2 1.2
21/08:00am 15.4 13.4 10.2 71 2.7 SE 11 15 6 8 1014.1 1013.8 1.2
21/07:30am 14.0 12.8 10.2 78 2.0 SSE 7 11 4 6 1013.7 1013.5 1.2
21/07:00am 13.3 11.2 9.9 80 1.8 SE 11 15 6 8 1013.2 1013.0 1.2
21/06:30am 11.4 9.7 9.7 89 0.9 SE 9 15 5 8 1012.6 1012.4 1.2
21/06:00am 10.7 10.4 8.6 87 1.0 CALM 0 0 0 0 1012.4 1012.2 1.2
21/05:30am 12.4 12.2 9.2 81 1.6 CALM 0 0 0 0 1012.1 1011.9 1.2
21/05:00am 13.5 12.7 9.7 78 2.0 S 4 7 2 4 1011.7 1011.5 1.2
21/04:30am 13.9 12.6 10.1 78 2.0 S 7 9 4 5 1011.5 1011.3 1.2
21/04:00am 13.9 12.6 10.1 78 2.0 S 7 11 4 6 1011.2 1011.0 1.2
21/03:30am 14.0 12.4 10.2 78 2.0 S 9 13 5 7 1011.0 1010.8 1.2
21/03:00am 14.2 12.1 9.8 75 2.3 S 11 17 6 9 1010.7 1010.5 1.2
21/02:30am 14.2 14.0 10.4 78 2.0 S 2 6 1 3 1010.5 1010.3 1.2
21/02:00am 14.3 13.3 10.3 77 2.1 S 6 9 3 5 1010.3 1010.1 1.2
21/01:30am 14.3 13.0 10.1 76 2.2 SSE 7 11 4 6 1010.2 1010.0 1.2
21/01:00am 14.5 13.2 9.9 74 2.4 S 7 13 4 7 1010.0 1009.8 1.2
21/12:30am 14.6 12.1 9.6 72 2.6 S 13 19 7 10 1009.8 1009.6 1.2
21/12:00am 14.3 13.1 10.3 77 2.1 S 7 11 4 6 1009.6 1009.4 1.2
 
Date/Time
EDT
Temp
°C
App
Temp
°C
Dew
Point
°C
Rel
Hum
%
Delta-T
°C
Wind Press
QNH
hPa
Press
MSL
hPa
Rain since
9am
mm
Dir  Spd
km/h
Gust
km/h
Spd
kts
Gust
kts
20/11:30pm 14.1 12.8 10.1 77 2.1 S 7 11 4 6 1009.3 1009.1 1.2
20/11:00pm 13.1 12.3 9.7 80 1.7 S 4 9 2 5 1009.1 1008.9 1.2
20/10:30pm 13.4 12.9 9.5 77 2.0 S 2 7 1 4 1009.1 1008.9 1.2
20/10:00pm 14.2 12.8 9.6 74 2.4 SSW 7 11 4 6 1009.0 1008.8 1.2
20/09:30pm 14.7 12.7 10.1 74 2.4 SSW 11 20 6 11 1008.7 1008.5 1.2
20/09:00pm 15.5 12.5 10.5 72 2.7 SW 17 30 9 16 1008.4 1008.1 1.2
20/08:30pm 15.6 12.0 10.6 72 2.7 SW 20 32 11 17 1008.2 1007.9 1.2
20/08:00pm 15.9 12.6 10.9 72 2.7 SW 19 33 10 18 1007.4 1007.1 1.2
20/07:30pm 16.5 13.2 10.8 69 3.1 SW 19 28 10 15 1006.8 1006.5 1.2
20/07:00pm 16.9 13.1 11.0 68 3.2 SW 22 37 12 20 1006.4 1006.1 1.2
20/06:30pm 16.4 12.8 11.8 74 2.5 SW 22 35 12 19 1005.8 1005.5 1.2
20/06:00pm 16.6 13.4 12.0 74 2.5 SW 20 37 11 20 1005.2 1004.9 1.2
20/05:30pm 16.8 14.0 13.1 79 2.1 SSW 20 37 11 20 1004.5 1004.2 1.2
20/05:00pm 17.0 14.7 14.1 83 1.7 SW 19 32 10 17 1003.9 1003.6 1.2
20/04:30pm 16.0 13.6 14.4 90 0.9 SSW 20 35 11 19 1003.6 1003.3 1.2
20/04:03pm 17.1 12.7 13.0 77 2.3 SW 28 50 15 27 1002.9 1002.6 1.0
20/04:00pm 17.4 14.1 12.9 75 2.5 SW 22 50 12 27 1002.8 1002.5 1.0
20/03:31pm 18.7 13.9 11.8 64 3.8 SW 28 46 15 25 1002.2 1001.9 1.0
20/03:30pm 18.8 13.7 11.9 64 3.8 SW 30 46 16 25 1002.2 1001.9 1.0
20/03:27pm 18.8 14.1 12.1 65 3.7 SW 28 46 15 25 1002.1 1001.8 1.0
20/03:00pm 20.1 17.2 12.8 63 4.2 SSW 20 43 11 23 1002.0 1001.7 1.0
20/02:30pm 19.8 15.1 13.3 66 3.7 SW 30 59 16 32 1001.8 1001.5 1.0
20/02:28pm 19.0 14.3 12.0 64 3.9 SW 28 59 15 32 1001.8 1001.5 1.0
20/02:00pm 18.2 15.7 13.5 74 2.7 SW 19 28 10 15 1001.4 1001.2 1.0
20/01:30pm 16.7 14.8 15.2 91 0.9 SW 19 32 10 17 1001.2 1001.0 1.0
20/01:00pm 15.9 12.8 14.4 91 0.9 SW 24 43 13 23 1000.9 1000.7 1.0
20/12:30pm 16.6 14.9 14.8 89 1.0 SW 17 28 9 15 999.9 999.7 0.6
20/12:00pm 17.5 15.9 15.1 86 1.4 WSW 17 24 9 13 999.1 998.9 0.6
20/11:30am 18.5 16.0 15.2 81 1.9 W 22 33 12 18 998.3 998.1 0.6
20/11:00am 17.1 14.9 16.0 93 0.7 WSW 22 28 12 15 997.6 997.3 0.6
20/10:30am 17.7 14.2 16.4 92 0.8 WSW 30 43 16 23 996.8 996.5 0.2
20/10:00am 19.6 18.5 17.4 87 1.4 WNW 19 30 10 16 995.8 995.5 0.0
20/09:30am 18.2 19.1 17.6 96 0.4 W 9 15 5 8 995.5 995.2 0.0
20/09:00am 18.4 19.0 17.6 95 0.5 NNW 11 15 6 8 995.1 994.8 24.2
20/08:30am 17.8 17.3 17.0 95 0.5 NW 15 28 8 15 994.5 994.2 24.0
20/08:00am 18.4 16.9 16.2 87 1.3 NW 19 30 10 16 993.9 993.6 20.2
20/07:30am 18.4 17.2 16.2 87 1.3 NNW 17 24 9 13 992.5 992.2 18.0
20/07:00am 17.4 17.6 16.8 96 0.4 N 11 20 6 11 992.7 992.4 18.0
20/06:30am 16.3 16.2 16.1 99 0.1 NE 11 20 6 11 992.9 992.6 17.8
20/06:22am 16.3 15.9 16.1 99 0.1 NE 13 22 7 12 993.6 993.3 17.8
20/06:00am 16.5 17.3 16.3 99 0.1 NE 7 13 4 7 995.6 995.3 17.0
20/05:30am 16.6 18.0 16.4 99 0.1 WSW 4 7 2 4 997.4 997.1 14.2
20/05:00am 16.6 16.7 16.4 99 0.1 E 11 15 6 8 997.5 997.2 13.0
20/04:30am 16.7 17.8 16.5 99 0.1 ENE 6 11 3 6 998.7 998.5 11.0
20/04:00am 17.2 18.2 16.9 98 0.2 NNE 7 11 4 6 1000.1 999.9 7.0
20/03:30am 17.6 19.5 16.8 95 0.5 E 2 13 1 7 1001.1 1000.9 4.6
20/03:00am 17.7 15.4 16.7 94 0.6 W 24 39 13 21 1002.5 1002.2 2.0
20/02:54am 17.7 13.8 16.4 92 0.8 WSW 32 46 17 25 1002.3 1002.0 1.4
20/02:30am 18.8 14.9 14.5 76 2.5 WSW 28 48 15 26 1000.2 1000.0 0.0
20/02:29am 18.7 15.2 14.4 76 2.5 WSW 26 48 14 26 1000.0 999.8 0.0
20/02:25am 18.7 16.8 14.2 75 2.6 SW 17 48 9 26 999.4 999.2 0.0
20/02:00am 17.1 17.1 14.2 83 1.7 S 7 11 4 6 997.4 997.1 0.0
20/01:30am 16.3 17.1 13.8 85 1.4 SE 2 7 1 4 997.7 997.4 0.0
20/01:00am 15.1 16.0 13.0 87 1.2 CALM 0 0 0 0 998.1 997.8 0.0
20/12:30am 15.5 16.4 13.0 85 1.4 CALM 0 0 0 0 999.0 998.8 0.0
20/12:00am 15.6 16.4 12.7 83 1.6 CALM 0 6 0 3 999.1 998.9 0.0
 
Date/Time
EDT
Temp
°C
App
Temp
°C
Dew
Point
°C
Rel
Hum
%
Delta-T
°C
Wind Press
QNH
hPa
Press
MSL
hPa
Rain since
9am
mm
Dir  Spd
km/h
Gust
km/h
Spd
kts
Gust
kts
19/11:30pm 16.6 17.2 13.1 80 2.0 E 2 7 1 4 999.2 999.0 0.0
19/11:00pm 17.2 17.4 12.9 76 2.4 S 4 7 2 4 1000.2 1000.0 0.0
19/10:30pm 18.5 19.3 12.5 68 3.4 CALM 0 0 0 0 1001.1 1000.9 0.0
19/10:00pm 20.4 19.6 12.9 62 4.3 SE 9 9 5 5 1001.7 1001.4 0.0
19/09:30pm 21.2 21.9 13.4 61 4.5 E 2 7 1 4 1002.4 1002.1 0.0
19/09:00pm 21.6 22.6 13.2 59 4.9 CALM 0 0 0 0 1003.4 1003.1 0.0
19/08:30pm 22.9 23.4 12.8 53 5.8 SSW 2 6 1 3 1003.6 1003.3 0.0
19/08:00pm 23.4 24.4 13.3 53 5.9 CALM 0 0 0 0 1004.3 1004.0 0.0
19/07:30pm 24.3 23.2 11.9 45 7.1 SW 9 15 5 8 1004.5 1004.2 0.0
19/07:00pm 24.9 22.8 11.1 42 7.8 SW 13 17 7 9 1004.8 1004.5 0.0
19/06:30pm 26.7 24.4 10.4 36 9.2 SSW 13 19 7 10 1004.9 1004.6 0.0
19/06:00pm 27.0 24.3 7.5 29 10.5 W 11 15 6 8 1005.1 1004.8 0.0
19/05:30pm 27.0 25.5 6.9 28 10.7 NNW 4 9 2 5 1005.4 1005.1 0.0
19/05:00pm 27.6 25.3 7.5 28 10.8 W 9 15 5 8 1006.3 1006.0 0.0
19/04:30pm 27.3 24.9 7.2 28 10.7 W 9 15 5 8 1006.9 1006.6 0.0
19/04:00pm 27.3 25.4 7.7 29 10.6 SSW 7 17 4 9 1007.4 1007.1 0.0
19/03:30pm 26.1 23.5 7.7 31 9.8 W 11 17 6 9 1008.0 1007.7 0.0
19/03:00pm 25.7 23.0 9.1 35 9.1 W 13 22 7 12 1008.7 1008.5 0.0
19/02:30pm 24.5 22.5 8.5 36 8.6 NW 9 17 5 9 1009.2 1009.0 0.0
19/02:00pm 24.3 21.4 8.3 36 8.6 W 13 17 7 9 1009.8 1009.6 0.0
19/01:30pm 22.9 21.2 8.2 39 7.8 N 7 13 4 7 1010.4 1010.2 0.0
19/01:00pm 22.0 20.4 8.9 43 7.0 W 7 11 4 6 1011.0 1010.8 0.0
19/12:30pm 20.9 19.2 8.2 44 6.6 WSW 7 11 4 6 1011.7 1011.5 0.0
19/12:00pm 19.6 17.8 8.0 47 6.0 N 7 15 4 8 1012.1 1011.9 0.0
19/11:30am 19.0 17.7 9.2 53 5.2 NNW 6 11 3 6 1012.4 1012.2 0.0
19/11:00am 18.0 16.7 9.1 56 4.7 SE 6 11 3 6 1012.8 1012.6 0.0
19/10:30am 16.7 15.4 9.1 61 3.9 SSW 6 9 3 5 1013.3 1013.1 0.0
19/10:00am 15.4 13.9 8.4 63 3.6 E 6 9 3 5 1013.5 1013.3 0.0
19/09:30am 14.9 13.5 9.7 71 2.7 NNE 7 11 4 6 1013.8 1013.6 0.0
19/09:00am 13.0 11.5 8.5 74 2.3 NNE 6 11 3 6 1014.1 1013.8 0.0
19/08:30am 12.0 11.1 9.2 83 1.4 N 4 11 2 6 1014.6 1014.3 0.0
19/08:00am 11.3 10.0 9.2 87 1.1 ENE 6 11 3 6 1014.7 1014.4 0.0
19/07:30am 9.0 8.6 8.2 95 0.4 CALM 0 0 0 0 1014.8 1014.5 0.0
19/07:00am 7.4 5.5 6.7 95 0.3 N 6 9 3 5 1014.6 1014.3 0.0

Latest Capital City Observations: Canberra | Sydney | Melbourne | Brisbane | Adelaide | Perth | Hobart | Darwin

Other Formats:

Comma delimited format used in spreadsheet applications
http://www.bom.gov.au/fwo/IDV60901/IDV60901.94864.axf

JavaScript Object Notation format (JSON) in row-major order
http://www.bom.gov.au/fwo/IDV60901/IDV60901.94864.json